Terminal Aerodrome Forecast
Issued by NWS Cleveland, OH

Home | Current Version | Previous Version | Text Only | Print | Product List | Glossary Off
Versions: 1 2 3 4 5 6 7 8 9 10 11 12 13 14 15 16

000
FTUS41 KCLE 191700 RRA
TAFTOL
TAF
KTOL 191741Z 1918/2018 VRB03KT P6SM SCT025 OVC050
     FM200100 VRB03KT P6SM SCT050
     FM200900 00000KT 1SM BR SCT004
     FM201400 VRB03KT P6SM SCT050=

USA.gov is the U.S. government's official web portal to all federal, state and local government web resources and services.